createdAt,value
2022-11-23T00:00:08.131Z,2.45
2022-11-23T00:00:18.204Z,2.45
2022-11-23T00:00:28.296Z,2.45
2022-11-23T00:00:38.379Z,2.47
2022-11-23T00:00:48.454Z,2.45
2022-11-23T00:00:58.523Z,2.45
2022-11-23T00:01:08.667Z,2.45
2022-11-23T00:01:18.733Z,2.47
2022-11-23T00:01:28.805Z,2.47
2022-11-23T00:01:38.894Z,2.45
2022-11-23T00:01:49.036Z,2.45
2022-11-23T00:01:59.141Z,2.45
2022-11-23T00:02:09.263Z,2.45
2022-11-23T00:02:19.394Z,2.45
2022-11-23T00:02:29.565Z,2.47
2022-11-23T00:02:39.681Z,2.45
2022-11-23T00:02:49.733Z,2.45
2022-11-23T00:02:59.795Z,2.47
2022-11-23T00:03:09.913Z,2.47
2022-11-23T00:03:20.053Z,2.45
2022-11-23T00:03:30.135Z,2.45
2022-11-23T00:03:40.239Z,2.47
2022-11-23T00:03:50.302Z,2.45
2022-11-23T00:04:00.395Z,2.45
2022-11-23T00:04:10.466Z,2.45
2022-11-23T00:04:20.584Z,2.44
2022-11-23T00:04:30.652Z,2.45
2022-11-23T00:04:40.713Z,2.45
2022-11-23T00:04:50.797Z,2.45
2022-11-23T00:05:00.900Z,2.47
2022-11-23T00:05:11.053Z,2.47
2022-11-23T00:05:21.135Z,2.45
2022-11-23T00:05:31.211Z,2.45
2022-11-23T00:05:41.280Z,2.45
2022-11-23T00:05:51.355Z,2.45
2022-11-23T00:06:01.419Z,2.45
2022-11-23T00:06:11.483Z,2.45
2022-11-23T00:06:21.595Z,2.47
2022-11-23T00:06:31.702Z,2.45
2022-11-23T00:06:41.792Z,2.45
2022-11-23T00:06:51.912Z,2.47
2022-11-23T00:07:01.902Z,2.44
2022-11-23T00:07:12.033Z,2.45
2022-11-23T00:07:22.146Z,2.44
2022-11-23T00:07:32.231Z,2.45
2022-11-23T00:07:42.371Z,2.45
2022-11-23T00:07:52.408Z,2.47
2022-11-23T00:08:02.353Z,2.44
2022-11-23T00:08:12.426Z,2.47
2022-11-23T00:08:22.503Z,2.44
2022-11-23T00:08:32.553Z,2.47
2022-11-23T00:08:42.614Z,2.45
2022-11-23T00:08:52.691Z,2.47
2022-11-23T00:09:02.759Z,2.45
2022-11-23T00:09:12.814Z,2.47
2022-11-23T00:09:22.911Z,2.45
2022-11-23T00:09:33.234Z,2.45
2022-11-23T00:09:43.121Z,2.45
2022-11-23T00:09:53.192Z,2.45
2022-11-23T00:10:03.263Z,2.47
2022-11-23T00:10:13.312Z,2.47
2022-11-23T00:10:23.372Z,2.45
2022-11-23T00:10:33.423Z,2.47
2022-11-23T00:10:43.599Z,2.47
2022-11-23T00:10:53.540Z,2.45
2022-11-23T00:11:03.621Z,2.47
2022-11-23T00:11:13.690Z,2.45
2022-11-23T00:11:23.743Z,2.45
2022-11-23T00:11:33.811Z,2.45
2022-11-23T00:11:43.888Z,2.47
2022-11-23T00:11:53.964Z,2.45
2022-11-23T00:12:04.043Z,2.47
2022-11-23T00:12:14.124Z,2.44
2022-11-23T00:12:24.221Z,2.45
2022-11-23T00:12:34.291Z,2.45
2022-11-23T00:12:44.383Z,2.45
2022-11-23T00:12:54.463Z,2.45
2022-11-23T00:13:04.561Z,2.45
2022-11-23T00:13:14.629Z,2.44
2022-11-23T00:13:24.782Z,2.47
2022-11-23T00:13:34.862Z,2.44
2022-11-23T00:13:44.959Z,2.44
2022-11-23T00:13:55.031Z,2.44
2022-11-23T00:14:05.209Z,2.45
2022-11-23T00:14:15.285Z,2.44
2022-11-23T00:14:25.351Z,2.44
2022-11-23T00:14:35.422Z,2.44
2022-11-23T00:14:45.502Z,2.44
2022-11-23T00:14:55.632Z,2.45
2022-11-23T00:15:05.717Z,2.44
2022-11-23T00:15:15.794Z,2.43
2022-11-23T00:15:25.864Z,2.44
2022-11-23T00:15:35.950Z,2.44
2022-11-23T00:15:46.012Z,2.44
2022-11-23T00:15:56.090Z,2.44
2022-11-23T00:16:06.185Z,2.45
2022-11-23T00:16:16.261Z,2.44
2022-11-23T00:16:26.341Z,2.45
2022-11-23T00:16:36.424Z,2.45
2022-11-23T00:16:46.532Z,2.44
2022-11-23T00:16:56.601Z,2.45
2022-11-23T00:17:06.682Z,2.45
2022-11-23T00:17:16.767Z,2.45
2022-11-23T00:17:26.841Z,2.45
2022-11-23T00:17:36.912Z,2.45
2022-11-23T00:17:46.993Z,2.45
2022-11-23T00:17:57.060Z,2.45
2022-11-23T00:18:07.140Z,2.47
2022-11-23T00:18:17.230Z,2.45
2022-11-23T00:18:27.320Z,2.45
2022-11-23T00:18:37.456Z,2.45
2022-11-23T00:18:47.555Z,2.47
2022-11-23T00:18:57.631Z,2.45
2022-11-23T00:19:07.740Z,2.47
2022-11-23T00:19:17.828Z,2.45
2022-11-23T00:19:27.900Z,2.44
2022-11-23T00:19:37.988Z,2.45
2022-11-23T00:19:48.090Z,2.45
2022-11-23T00:19:58.171Z,2.45
2022-11-23T00:20:08.241Z,2.45
2022-11-23T00:20:18.317Z,2.44
2022-11-23T00:20:28.398Z,2.44
2022-11-23T00:20:38.472Z,2.45
2022-11-23T00:20:48.553Z,2.45
2022-11-23T00:20:58.700Z,2.45
2022-11-23T00:21:08.786Z,2.45
2022-11-23T00:21:18.911Z,2.45
2022-11-23T00:21:28.989Z,2.45
2022-11-23T00:21:39.101Z,2.45
2022-11-23T00:21:49.180Z,2.44
2022-11-23T00:21:59.272Z,2.45
2022-11-23T00:22:09.364Z,2.44
2022-11-23T00:22:19.478Z,2.45
2022-11-23T00:22:29.561Z,2.45
2022-11-23T00:22:39.722Z,2.45
2022-11-23T00:22:49.838Z,2.45
2022-11-23T00:22:59.929Z,2.47
2022-11-23T00:23:10.019Z,2.45
2022-11-23T00:23:20.099Z,2.44
2022-11-23T00:23:30.191Z,2.45
2022-11-23T00:23:40.273Z,2.45
2022-11-23T00:23:50.334Z,2.45
2022-11-23T00:24:00.482Z,2.47
2022-11-23T00:24:10.572Z,2.47
2022-11-23T00:24:20.653Z,2.47
2022-11-23T00:24:30.810Z,2.47
2022-11-23T00:24:40.962Z,2.47
2022-11-23T00:24:51.035Z,2.47
2022-11-23T00:25:01.182Z,2.47
2022-11-23T00:25:11.305Z,2.45
2022-11-23T00:25:21.390Z,2.47
2022-11-23T00:25:31.459Z,2.47
2022-11-23T00:25:41.572Z,2.45
2022-11-23T00:25:51.634Z,2.45
2022-11-23T00:26:01.716Z,2.45
2022-11-23T00:26:11.808Z,2.45
2022-11-23T00:26:21.876Z,2.45
2022-11-23T00:26:31.951Z,2.45
2022-11-23T00:26:42.060Z,2.45
2022-11-23T00:26:52.158Z,2.45
2022-11-23T00:27:02.241Z,2.44
2022-11-23T00:27:12.438Z,2.45
2022-11-23T00:27:22.418Z,2.45
2022-11-23T00:27:32.508Z,2.45
2022-11-23T00:27:42.577Z,2.45
2022-11-23T00:27:52.643Z,2.45
2022-11-23T00:28:02.739Z,2.45
2022-11-23T00:28:12.880Z,2.47
2022-11-23T00:28:22.960Z,2.45
2022-11-23T00:28:33.170Z,2.45
2022-11-23T00:28:43.259Z,2.45
2022-11-23T00:28:53.439Z,2.44
2022-11-23T00:29:03.526Z,2.44
2022-11-23T00:29:13.609Z,2.44
2022-11-23T00:29:23.677Z,2.45
2022-11-23T00:29:33.934Z,2.45
2022-11-23T00:29:43.748Z,2.44
2022-11-23T00:29:53.828Z,2.44
2022-11-23T00:30:03.909Z,2.44
2022-11-23T00:30:13.988Z,2.45
2022-11-23T00:30:24.070Z,2.45
2022-11-23T00:30:34.164Z,2.45
2022-11-23T00:30:44.305Z,2.44
2022-11-23T00:30:54.388Z,2.43
2022-11-23T00:31:04.527Z,2.44
2022-11-23T00:31:14.605Z,2.45
2022-11-23T00:31:24.678Z,2.45
2022-11-23T00:31:34.748Z,2.45
2022-11-23T00:31:44.889Z,2.45
2022-11-23T00:31:54.958Z,2.45
2022-11-23T00:32:05.116Z,2.44
2022-11-23T00:32:15.196Z,2.45
2022-11-23T00:32:25.277Z,2.44
2022-11-23T00:32:35.403Z,2.45
2022-11-23T00:32:45.473Z,2.45
2022-11-23T00:32:55.540Z,2.45
2022-11-23T00:33:05.618Z,2.45
2022-11-23T00:33:15.700Z,2.45
2022-11-23T00:33:25.784Z,2.47
2022-11-23T00:33:35.900Z,2.44
2022-11-23T00:33:45.969Z,2.45
2022-11-23T00:33:56.089Z,2.47
2022-11-23T00:34:06.182Z,2.47
2022-11-23T00:34:16.260Z,2.44
2022-11-23T00:34:26.329Z,2.47
2022-11-23T00:34:36.398Z,2.47
2022-11-23T00:34:46.475Z,2.45
2022-11-23T00:34:56.551Z,2.47
2022-11-23T00:35:06.664Z,2.47
2022-11-23T00:35:16.747Z,2.48
2022-11-23T00:35:26.830Z,2.47
2022-11-23T00:35:36.904Z,2.45
2022-11-23T00:35:46.978Z,2.47
2022-11-23T00:35:57.057Z,2.45
2022-11-23T00:36:07.128Z,2.47
2022-11-23T00:36:17.227Z,2.47
2022-11-23T00:36:27.317Z,2.48
2022-11-23T00:36:37.394Z,2.47
2022-11-23T00:36:47.500Z,2.45
2022-11-23T00:36:57.566Z,2.47
2022-11-23T00:37:07.675Z,2.48
2022-11-23T00:37:17.747Z,2.47
2022-11-23T00:37:27.850Z,2.45
2022-11-23T00:37:37.958Z,2.47
2022-11-23T00:37:48.027Z,2.47
2022-11-23T00:37:58.095Z,2.47
2022-11-23T00:38:08.168Z,2.47
2022-11-23T00:38:18.247Z,2.47
2022-11-23T00:38:28.337Z,2.45
2022-11-23T00:38:38.405Z,2.47
2022-11-23T00:38:48.488Z,2.47
2022-11-23T00:38:58.567Z,2.47
2022-11-23T00:39:08.668Z,2.47
2022-11-23T00:39:18.754Z,2.47
2022-11-23T00:39:28.999Z,2.47
2022-11-23T00:39:38.879Z,2.45
2022-11-23T00:39:48.960Z,2.47
2022-11-23T00:39:59.031Z,2.47
2022-11-23T00:40:09.107Z,2.47
2022-11-23T00:40:19.186Z,2.47
2022-11-23T00:40:29.282Z,2.47
2022-11-23T00:40:39.361Z,2.45
2022-11-23T00:40:49.456Z,2.47
2022-11-23T00:40:59.527Z,2.45
2022-11-23T00:41:09.611Z,2.47
2022-11-23T00:41:19.691Z,2.45
2022-11-23T00:41:29.766Z,2.48
2022-11-23T00:41:39.858Z,2.45
2022-11-23T00:41:49.953Z,2.45
2022-11-23T00:42:00.028Z,2.47
2022-11-23T00:42:10.107Z,2.47
2022-11-23T00:42:20.183Z,2.45
2022-11-23T00:42:33.838Z,2.47
2022-11-23T00:42:41.257Z,2.45
2022-11-23T00:42:51.346Z,2.44
2022-11-23T00:43:01.418Z,2.47
2022-11-23T00:43:11.499Z,2.45
2022-11-23T00:43:21.584Z,2.45
2022-11-23T00:43:31.676Z,2.47
2022-11-23T00:43:41.817Z,2.45
2022-11-23T00:43:51.906Z,2.47
2022-11-23T00:44:02.006Z,2.45
2022-11-23T00:44:12.096Z,2.45
2022-11-23T00:44:22.156Z,2.47
2022-11-23T00:44:32.248Z,2.44
2022-11-23T00:44:42.326Z,2.45
2022-11-23T00:44:52.395Z,2.45
2022-11-23T00:45:02.480Z,2.45
2022-11-23T00:45:12.585Z,2.47
2022-11-23T00:45:22.666Z,2.44
2022-11-23T00:45:32.795Z,2.45
2022-11-23T00:45:42.916Z,2.45
2022-11-23T00:45:52.986Z,2.44
2022-11-23T00:46:03.084Z,2.45
2022-11-23T00:46:13.159Z,2.47
2022-11-23T00:46:23.249Z,2.44
2022-11-23T00:46:33.336Z,2.44
2022-11-23T00:46:43.421Z,2.47
2022-11-23T00:46:53.549Z,2.47
2022-11-23T00:47:03.634Z,2.45
2022-11-23T00:47:13.706Z,2.44
2022-11-23T00:47:23.786Z,2.47
2022-11-23T00:47:33.885Z,2.45
2022-11-23T00:47:44.049Z,2.45
2022-11-23T00:47:54.124Z,2.45
2022-11-23T00:48:04.223Z,2.47
2022-11-23T00:48:14.314Z,2.45
2022-11-23T00:48:24.414Z,2.45
2022-11-23T00:48:34.506Z,2.45
2022-11-23T00:48:44.707Z,2.45
2022-11-23T00:48:54.638Z,2.45
2022-11-23T00:49:04.732Z,2.47
2022-11-23T00:49:14.826Z,2.47
2022-11-23T00:49:24.907Z,2.47
2022-11-23T00:49:35.064Z,2.47
2022-11-23T00:49:45.146Z,2.44
2022-11-23T00:49:55.236Z,2.45
2022-11-23T00:50:05.328Z,2.45
2022-11-23T00:50:15.404Z,2.45
2022-11-23T00:50:25.496Z,2.45
2022-11-23T00:50:35.574Z,2.45
2022-11-23T00:50:45.645Z,2.45
2022-11-23T00:50:55.797Z,2.45
2022-11-23T00:51:05.912Z,2.45
2022-11-23T00:51:15.999Z,2.45
2022-11-23T00:51:26.085Z,2.45
2022-11-23T00:51:36.157Z,2.45
2022-11-23T00:51:46.275Z,2.45
2022-11-23T00:51:56.364Z,2.45
2022-11-23T00:52:06.444Z,2.45
2022-11-23T00:52:16.451Z,2.47
2022-11-23T00:52:26.533Z,2.47
2022-11-23T00:52:36.613Z,2.47
2022-11-23T00:52:46.776Z,2.47
2022-11-23T00:52:56.846Z,2.47
2022-11-23T00:53:06.915Z,2.47
2022-11-23T00:53:16.995Z,2.47
2022-11-23T00:53:27.088Z,2.47
2022-11-23T00:53:37.183Z,2.45
2022-11-23T00:53:47.265Z,2.45
2022-11-23T00:53:57.344Z,2.47
2022-11-23T00:54:07.444Z,2.47
2022-11-23T00:54:17.533Z,2.47
2022-11-23T00:54:27.619Z,2.45
2022-11-23T00:54:37.684Z,2.47
2022-11-23T00:54:47.774Z,2.45
2022-11-23T00:54:57.864Z,2.47
2022-11-23T00:55:07.962Z,2.47
2022-11-23T00:55:18.090Z,2.47
2022-11-23T00:55:28.174Z,2.47
2022-11-23T00:55:38.255Z,2.47
2022-11-23T00:55:48.335Z,2.47
2022-11-23T00:55:58.436Z,2.47
2022-11-23T00:56:08.513Z,2.47
2022-11-23T00:56:18.608Z,2.47
2022-11-23T00:56:28.728Z,2.47
2022-11-23T00:56:38.820Z,2.47
2022-11-23T00:56:48.907Z,2.47
2022-11-23T00:56:59.004Z,2.48
2022-11-23T00:57:09.073Z,2.45
2022-11-23T00:57:19.210Z,2.47
2022-11-23T00:57:29.297Z,2.48
2022-11-23T00:57:39.374Z,2.47
2022-11-23T00:57:49.452Z,2.47
2022-11-23T00:57:59.542Z,2.45
2022-11-23T00:58:09.624Z,2.47
2022-11-23T00:58:19.719Z,2.47
2022-11-23T00:58:29.792Z,2.47
2022-11-23T00:58:39.902Z,2.47
2022-11-23T00:58:49.963Z,2.45
2022-11-23T00:59:00.054Z,2.45
2022-11-23T00:59:10.123Z,2.45
2022-11-23T00:59:20.223Z,2.47
2022-11-23T00:59:30.752Z,2.45
2022-11-23T00:59:40.333Z,2.45
2022-11-23T00:59:50.424Z,2.45
2022-11-23T01:00:00.505Z,2.45
2022-11-23T01:00:10.593Z,2.45
2022-11-23T01:00:20.675Z,2.45
2022-11-23T01:00:30.765Z,2.45
2022-11-23T01:00:40.879Z,2.45
2022-11-23T01:00:50.964Z,2.45
2022-11-23T01:01:01.073Z,2.45
2022-11-23T01:01:11.255Z,2.45
2022-11-23T01:01:21.330Z,2.44
2022-11-23T01:01:31.307Z,2.43
2022-11-23T01:01:41.488Z,2.45
2022-11-23T01:01:51.523Z,2.45
2022-11-23T01:02:01.574Z,2.43
2022-11-23T01:02:11.568Z,2.44
2022-11-23T01:02:21.683Z,2.45
2022-11-23T01:02:31.763Z,2.44
2022-11-23T01:02:41.877Z,2.43
2022-11-23T01:02:51.952Z,2.43
2022-11-23T01:03:02.044Z,2.44
2022-11-23T01:03:12.129Z,2.44
2022-11-23T01:03:22.204Z,2.44
2022-11-23T01:03:32.325Z,2.45
2022-11-23T01:03:42.453Z,2.44
2022-11-23T01:03:52.603Z,2.44
2022-11-23T01:04:02.715Z,2.44
2022-11-23T01:04:12.862Z,2.45
2022-11-23T01:04:22.962Z,2.45
2022-11-23T01:04:33.125Z,2.44
2022-11-23T01:04:43.194Z,2.44
2022-11-23T01:04:53.281Z,2.44
2022-11-23T01:05:03.370Z,2.44
2022-11-23T01:05:13.453Z,2.44
2022-11-23T01:05:23.543Z,2.45
2022-11-23T01:05:33.643Z,2.44
2022-11-23T01:05:43.726Z,2.44
2022-11-23T01:05:53.824Z,2.43
2022-11-23T01:06:03.891Z,2.44
2022-11-23T01:06:13.993Z,2.43
2022-11-23T01:06:24.066Z,2.44
2022-11-23T01:06:34.146Z,2.43
2022-11-23T01:06:44.213Z,2.44
2022-11-23T01:06:54.299Z,2.44
2022-11-23T01:07:04.412Z,2.45
2022-11-23T01:07:14.580Z,2.43
2022-11-23T01:07:24.685Z,2.44
2022-11-23T01:07:34.797Z,2.44
2022-11-23T01:07:44.917Z,2.43
2022-11-23T01:07:55.015Z,2.43
2022-11-23T01:08:05.092Z,2.44
2022-11-23T01:08:15.191Z,2.43
2022-11-23T01:08:25.281Z,2.43
2022-11-23T01:08:35.335Z,2.44
2022-11-23T01:08:45.414Z,2.44
2022-11-23T01:08:55.511Z,2.43
2022-11-23T01:09:05.591Z,2.43
2022-11-23T01:09:15.670Z,2.43
2022-11-23T01:09:25.750Z,2.44
2022-11-23T01:09:35.835Z,2.44
2022-11-23T01:09:45.948Z,2.43
2022-11-23T01:09:56.082Z,2.43
2022-11-23T01:10:06.169Z,2.43
2022-11-23T01:10:16.280Z,2.43
2022-11-23T01:10:26.351Z,2.43
2022-11-23T01:10:36.434Z,2.43
2022-11-23T01:10:46.511Z,2.43
2022-11-23T01:10:56.612Z,2.43
2022-11-23T01:11:06.754Z,2.41
2022-11-23T01:11:16.897Z,2.43
2022-11-23T01:11:26.974Z,2.43
2022-11-23T01:11:37.062Z,2.44
2022-11-23T01:11:47.139Z,2.43
2022-11-23T01:11:57.262Z,2.43
2022-11-23T01:12:07.352Z,2.41
2022-11-23T01:12:17.450Z,2.44
2022-11-23T01:12:27.539Z,2.43
2022-11-23T01:12:37.670Z,2.43
2022-11-23T01:12:47.762Z,2.43
2022-11-23T01:12:57.832Z,2.43
2022-11-23T01:13:07.920Z,2.41
2022-11-23T01:13:18.008Z,2.41
2022-11-23T01:13:28.070Z,2.41
2022-11-23T01:13:38.150Z,2.43
2022-11-23T01:13:48.239Z,2.41
2022-11-23T01:13:58.324Z,2.43
2022-11-23T01:14:08.411Z,2.41
2022-11-23T01:14:18.511Z,2.41
2022-11-23T01:14:28.629Z,2.41
2022-11-23T01:14:38.737Z,2.43
2022-11-23T01:14:48.810Z,2.43
2022-11-23T01:14:58.904Z,2.43
2022-11-23T01:15:08.979Z,2.44
2022-11-23T01:15:19.048Z,2.44
2022-11-23T01:15:29.148Z,2.43
2022-11-23T01:15:39.218Z,2.43
2022-11-23T01:15:49.382Z,2.43
2022-11-23T01:15:59.464Z,2.43
2022-11-23T01:16:09.547Z,2.41
2022-11-23T01:16:24.216Z,2.41
2022-11-23T01:16:29.798Z,2.41
2022-11-23T01:16:39.892Z,2.43
2022-11-23T01:16:50.004Z,2.41
2022-11-23T01:17:00.138Z,2.41
2022-11-23T01:17:10.219Z,2.41
2022-11-23T01:17:20.309Z,2.41
2022-11-23T01:17:30.409Z,2.43
2022-11-23T01:17:40.489Z,2.41
2022-11-23T01:17:50.589Z,2.40
2022-11-23T01:18:00.663Z,2.41
2022-11-23T01:18:10.747Z,2.41
2022-11-23T01:18:20.822Z,2.41
2022-11-23T01:18:30.919Z,2.41
2022-11-23T01:18:41.010Z,2.41
2022-11-23T01:18:51.088Z,2.41
2022-11-23T01:19:01.189Z,2.41
2022-11-23T01:19:11.320Z,2.41
2022-11-23T01:19:21.474Z,2.41
2022-11-23T01:19:31.955Z,2.41
2022-11-23T01:19:41.683Z,2.41
2022-11-23T01:19:51.759Z,2.41
2022-11-23T01:20:01.834Z,2.41
2022-11-23T01:20:11.913Z,2.40
2022-11-23T01:20:22.039Z,2.41
2022-11-23T01:20:32.127Z,2.41
2022-11-23T01:20:42.240Z,2.41
2022-11-23T01:20:52.316Z,2.40
2022-11-23T01:21:02.409Z,2.40
2022-11-23T01:21:12.496Z,2.41
2022-11-23T01:21:22.588Z,2.40
2022-11-23T01:21:32.658Z,2.40
2022-11-23T01:21:42.789Z,2.40
2022-11-23T01:21:52.894Z,2.40
2022-11-23T01:22:02.990Z,2.41
2022-11-23T01:22:13.691Z,2.40
2022-11-23T01:22:23.247Z,2.40
2022-11-23T01:22:33.258Z,2.41
2022-11-23T01:22:43.326Z,2.43
2022-11-23T01:22:53.400Z,2.41
2022-11-23T01:23:03.480Z,2.41
2022-11-23T01:23:13.558Z,2.40
2022-11-23T01:23:23.640Z,2.41
2022-11-23T01:23:33.729Z,2.41
2022-11-23T01:23:43.897Z,2.43
2022-11-23T01:23:53.966Z,2.43
2022-11-23T01:24:04.072Z,2.43
2022-11-23T01:24:14.148Z,2.41
2022-11-23T01:24:24.258Z,2.43
2022-11-23T01:24:34.329Z,2.41
2022-11-23T01:24:44.408Z,2.43
2022-11-23T01:24:54.484Z,2.41
2022-11-23T01:25:04.609Z,2.43
2022-11-23T01:25:14.701Z,2.41
2022-11-23T01:25:24.836Z,2.43
2022-11-23T01:25:34.927Z,2.44
2022-11-23T01:25:45.018Z,2.44
2022-11-23T01:25:57.116Z,2.43
2022-11-23T01:26:05.172Z,2.44
2022-11-23T01:26:15.228Z,2.43
2022-11-23T01:26:25.328Z,2.43
2022-11-23T01:26:35.415Z,2.44
2022-11-23T01:26:45.500Z,2.43
2022-11-23T01:26:55.572Z,2.44
2022-11-23T01:27:05.756Z,2.43
2022-11-23T01:27:15.837Z,2.44
2022-11-23T01:27:25.929Z,2.41
2022-11-23T01:27:36.029Z,2.44
2022-11-23T01:27:46.107Z,2.44
2022-11-23T01:27:56.259Z,2.43
2022-11-23T01:28:06.354Z,2.44
2022-11-23T01:28:16.409Z,2.44
2022-11-23T01:28:26.502Z,2.44
2022-11-23T01:28:36.579Z,2.43
2022-11-23T01:28:46.689Z,2.44
2022-11-23T01:28:56.787Z,2.43
2022-11-23T01:29:06.889Z,2.44
2022-11-23T01:29:17.030Z,2.45
2022-11-23T01:29:26.955Z,2.44
2022-11-23T01:29:37.046Z,2.44
2022-11-23T01:29:47.155Z,2.44
2022-11-23T01:29:57.249Z,2.45
2022-11-23T01:30:07.330Z,2.47
2022-11-23T01:30:17.420Z,2.44
2022-11-23T01:30:27.517Z,2.44
2022-11-23T01:30:37.596Z,2.44
2022-11-23T01:30:47.669Z,2.45
2022-11-23T01:30:57.803Z,2.44
2022-11-23T01:31:07.878Z,2.45
2022-11-23T01:31:17.960Z,2.45
2022-11-23T01:31:28.046Z,2.47
2022-11-23T01:31:41.837Z,2.45
2022-11-23T01:31:49.156Z,2.43
2022-11-23T01:31:59.277Z,2.44
2022-11-23T01:32:09.458Z,2.47
2022-11-23T01:32:19.542Z,2.44
2022-11-23T01:32:29.620Z,2.45
2022-11-23T01:32:39.696Z,2.45
2022-11-23T01:32:49.793Z,2.47
2022-11-23T01:32:59.960Z,2.47
2022-11-23T01:33:10.074Z,2.47
2022-11-23T01:33:20.216Z,2.45
2022-11-23T01:33:30.338Z,2.45
2022-11-23T01:33:40.404Z,2.45
2022-11-23T01:33:50.547Z,2.47
2022-11-23T01:34:00.624Z,2.47
2022-11-23T01:34:10.785Z,2.47
2022-11-23T01:34:20.847Z,2.45
2022-11-23T01:34:30.936Z,2.47
2022-11-23T01:34:41.019Z,2.47
2022-11-23T01:34:51.095Z,2.47
2022-11-23T01:35:01.226Z,2.47
2022-11-23T01:35:12.354Z,2.47
2022-11-23T01:35:21.418Z,2.48
2022-11-23T01:35:31.498Z,2.47
2022-11-23T01:35:41.576Z,2.48
2022-11-23T01:35:51.657Z,2.47
2022-11-23T01:36:01.745Z,2.48
2022-11-23T01:36:11.819Z,2.47
2022-11-23T01:36:21.896Z,2.48
2022-11-23T01:36:31.897Z,2.47
2022-11-23T01:36:41.976Z,2.48
2022-11-23T01:36:52.067Z,2.48
2022-11-23T01:37:02.216Z,2.47
2022-11-23T01:37:12.300Z,2.47
2022-11-23T01:37:22.386Z,2.47
2022-11-23T01:37:32.467Z,2.48
2022-11-23T01:37:42.546Z,2.48
2022-11-23T01:37:52.627Z,2.48
2022-11-23T01:38:02.705Z,2.48
2022-11-23T01:38:18.041Z,2.50
2022-11-23T01:38:23.785Z,2.47
2022-11-23T01:38:33.875Z,2.50
2022-11-23T01:38:43.986Z,2.48
2022-11-23T01:38:54.069Z,2.50
2022-11-23T01:39:04.226Z,2.50
2022-11-23T01:39:14.182Z,2.48
2022-11-23T01:39:24.254Z,2.48
2022-11-23T01:39:34.474Z,2.50
2022-11-23T01:39:44.455Z,2.50
2022-11-23T01:39:54.626Z,2.51
2022-11-23T01:40:04.703Z,2.51
2022-11-23T01:40:14.813Z,2.51
2022-11-23T01:40:24.915Z,2.50
2022-11-23T01:40:35.007Z,2.53
2022-11-23T01:40:45.074Z,2.51
2022-11-23T01:40:55.146Z,2.51
2022-11-23T01:41:05.213Z,2.51
2022-11-23T01:41:15.377Z,2.51
2022-11-23T01:41:25.458Z,2.51
2022-11-23T01:41:35.534Z,2.51
2022-11-23T01:41:45.607Z,2.51
2022-11-23T01:41:55.701Z,2.53
2022-11-23T01:42:05.781Z,2.53
2022-11-23T01:42:18.008Z,2.51
2022-11-23T01:42:25.857Z,2.53
2022-11-23T01:42:35.955Z,2.53
2022-11-23T01:42:46.034Z,2.53
2022-11-23T01:42:56.118Z,2.53
2022-11-23T01:43:06.264Z,2.53
2022-11-23T01:43:16.361Z,2.53
2022-11-23T01:43:26.436Z,2.55
2022-11-23T01:43:36.515Z,2.55
2022-11-23T01:43:46.614Z,2.55
2022-11-23T01:43:56.696Z,2.55
2022-11-23T01:44:06.773Z,2.53
2022-11-23T01:44:16.855Z,2.55
2022-11-23T01:44:27.014Z,2.55
2022-11-23T01:44:37.097Z,2.56
2022-11-23T01:44:47.184Z,2.55
2022-11-23T01:44:57.259Z,2.56
2022-11-23T01:45:07.355Z,2.55
2022-11-23T01:45:17.513Z,2.58
2022-11-23T01:45:27.584Z,2.55
2022-11-23T01:45:37.744Z,2.56
2022-11-23T01:45:47.826Z,2.55
2022-11-23T01:45:57.903Z,2.56
2022-11-23T01:46:07.984Z,2.55
2022-11-23T01:46:18.122Z,2.56
2022-11-23T01:46:28.195Z,2.56
2022-11-23T01:46:38.274Z,2.58
2022-11-23T01:46:48.365Z,2.55
2022-11-23T01:46:58.474Z,2.56
2022-11-23T01:47:08.581Z,2.56
2022-11-23T01:47:18.665Z,2.58
2022-11-23T01:47:28.742Z,2.58
2022-11-23T01:47:38.914Z,2.56
2022-11-23T01:47:48.986Z,2.56
2022-11-23T01:47:59.124Z,2.58
2022-11-23T01:48:09.204Z,2.58
2022-11-23T01:48:19.294Z,2.58
2022-11-23T01:48:29.395Z,2.58
2022-11-23T01:48:39.478Z,2.58
2022-11-23T01:48:49.590Z,2.58
2022-11-23T01:48:59.673Z,2.58
2022-11-23T01:49:09.761Z,2.58
2022-11-23T01:49:19.855Z,2.59
2022-11-23T01:49:30.203Z,2.59
2022-11-23T01:49:39.974Z,2.59
2022-11-23T01:49:50.066Z,2.59
2022-11-23T01:50:00.168Z,2.58
2022-11-23T01:50:10.249Z,2.59
2022-11-23T01:50:20.330Z,2.59
2022-11-23T01:50:30.406Z,2.58
2022-11-23T01:50:40.474Z,2.59
2022-11-23T01:50:50.573Z,2.59
2022-11-23T01:51:00.671Z,2.61
2022-11-23T01:51:10.707Z,2.59
2022-11-23T01:51:20.813Z,2.59
2022-11-23T01:51:30.910Z,2.59
2022-11-23T01:51:40.983Z,2.59
2022-11-23T01:51:51.063Z,2.61
2022-11-23T01:52:01.163Z,2.62
2022-11-23T01:52:11.265Z,2.61
2022-11-23T01:52:21.335Z,2.62
2022-11-23T01:52:31.493Z,2.61
2022-11-23T01:52:41.593Z,2.61
2022-11-23T01:52:51.686Z,2.61
2022-11-23T01:53:01.773Z,2.62
2022-11-23T01:53:11.901Z,2.61
2022-11-23T01:53:22.014Z,2.62
2022-11-23T01:53:32.130Z,2.62
2022-11-23T01:53:42.221Z,2.61
2022-11-23T01:53:52.323Z,2.59
2022-11-23T01:54:02.430Z,2.62
2022-11-23T01:54:12.534Z,2.62
2022-11-23T01:54:22.613Z,2.62
2022-11-23T01:54:32.674Z,2.61
2022-11-23T01:54:42.754Z,2.62
2022-11-23T01:54:52.852Z,2.62
2022-11-23T01:55:08.273Z,2.62
2022-11-23T01:55:13.913Z,2.59
2022-11-23T01:55:24.123Z,2.63
2022-11-23T01:55:34.024Z,2.62
2022-11-23T01:55:44.122Z,2.62
2022-11-23T01:55:54.213Z,2.63
2022-11-23T01:56:04.283Z,2.62
2022-11-23T01:56:14.363Z,2.63
2022-11-23T01:56:24.475Z,2.62
2022-11-23T01:56:34.562Z,2.63
2022-11-23T01:56:44.663Z,2.62
2022-11-23T01:56:54.747Z,2.62
2022-11-23T01:57:04.922Z,2.63
2022-11-23T01:57:15.084Z,2.63
2022-11-23T01:57:24.998Z,2.63
2022-11-23T01:57:35.081Z,2.62
2022-11-23T01:57:45.212Z,2.62
2022-11-23T01:57:55.283Z,2.63
2022-11-23T01:58:05.413Z,2.63
2022-11-23T01:58:15.494Z,2.63
2022-11-23T01:58:25.563Z,2.65
2022-11-23T01:58:35.674Z,2.63
2022-11-23T01:58:45.761Z,2.63
2022-11-23T01:58:55.834Z,2.63
2022-11-23T01:59:05.922Z,2.63
2022-11-23T01:59:16.021Z,2.65
2022-11-23T01:59:26.105Z,2.63
2022-11-23T01:59:36.103Z,2.63
2022-11-23T01:59:46.201Z,2.65
2022-11-23T01:59:56.290Z,2.65
2022-11-23T02:00:06.374Z,2.63
2022-11-23T02:00:16.453Z,2.65
2022-11-23T02:00:26.600Z,2.65
2022-11-23T02:00:36.674Z,2.65
2022-11-23T02:00:46.800Z,2.65
2022-11-23T02:00:56.962Z,2.65
2022-11-23T02:01:07.051Z,2.65
2022-11-23T02:01:17.245Z,2.65
2022-11-23T02:01:27.279Z,2.65
2022-11-23T02:01:37.413Z,2.65
2022-11-23T02:01:47.532Z,2.65
2022-11-23T02:01:57.605Z,2.66
2022-11-23T02:02:07.692Z,2.65
2022-11-23T02:02:17.771Z,2.66
2022-11-23T02:02:27.865Z,2.66
2022-11-23T02:02:37.956Z,2.65
2022-11-23T02:02:48.044Z,2.66
2022-11-23T02:02:58.139Z,2.66
2022-11-23T02:03:08.231Z,2.65
2022-11-23T02:03:18.310Z,2.66
2022-11-23T02:03:28.452Z,2.66
2022-11-23T02:03:38.534Z,2.66
2022-11-23T02:03:48.668Z,2.66
2022-11-23T02:03:58.760Z,2.65
2022-11-23T02:04:08.842Z,2.68
2022-11-23T02:04:18.933Z,2.66
2022-11-23T02:04:28.987Z,2.66
2022-11-23T02:04:39.072Z,2.66
2022-11-23T02:04:49.163Z,2.68
2022-11-23T02:04:59.298Z,2.65
2022-11-23T02:05:09.351Z,2.66
2022-11-23T02:05:19.508Z,2.65
2022-11-23T02:05:29.592Z,2.66
2022-11-23T02:05:39.672Z,2.66
2022-11-23T02:05:49.768Z,2.66
2022-11-23T02:05:59.882Z,2.66
2022-11-23T02:06:09.932Z,2.68
2022-11-23T02:06:20.013Z,2.66
2022-11-23T02:06:30.098Z,2.66
2022-11-23T02:06:40.240Z,2.65
2022-11-23T02:06:50.350Z,2.66
2022-11-23T02:07:00.429Z,2.66
2022-11-23T02:07:10.598Z,2.66
2022-11-23T02:07:20.599Z,2.68
2022-11-23T02:07:30.553Z,2.68
2022-11-23T02:07:40.631Z,2.66
2022-11-23T02:07:50.903Z,2.68
2022-11-23T02:08:00.870Z,2.69
2022-11-23T02:08:10.940Z,2.66
2022-11-23T02:08:21.020Z,2.68
2022-11-23T02:08:31.156Z,2.68
2022-11-23T02:08:41.241Z,2.68
2022-11-23T02:08:51.308Z,2.69
2022-11-23T02:09:01.421Z,2.69
2022-11-23T02:09:11.500Z,2.68
2022-11-23T02:09:21.623Z,2.68
2022-11-23T02:09:31.937Z,2.68
2022-11-23T02:09:41.691Z,2.69
2022-11-23T02:09:51.822Z,2.69
2022-11-23T02:10:01.924Z,2.69
2022-11-23T02:10:11.981Z,2.69
2022-11-23T02:10:22.078Z,2.69
2022-11-23T02:10:32.150Z,2.69
2022-11-23T02:10:42.235Z,2.69
2022-11-23T02:10:52.340Z,2.69
2022-11-23T02:11:02.441Z,2.69
2022-11-23T02:11:12.520Z,2.69
2022-11-23T02:11:22.621Z,2.69
2022-11-23T02:11:32.760Z,2.71
2022-11-23T02:11:42.873Z,2.69
2022-11-23T02:11:52.950Z,2.71
2022-11-23T02:12:03.040Z,2.69
2022-11-23T02:12:13.181Z,2.69
2022-11-23T02:12:23.257Z,2.71
2022-11-23T02:12:33.408Z,2.73
2022-11-23T02:12:43.480Z,2.71
2022-11-23T02:12:53.560Z,2.73
2022-11-23T02:13:03.661Z,2.71
2022-11-23T02:13:13.719Z,2.71
2022-11-23T02:13:23.849Z,2.71
2022-11-23T02:13:33.988Z,2.71
2022-11-23T02:13:44.089Z,2.73
2022-11-23T02:13:54.180Z,2.74
2022-11-23T02:14:04.277Z,2.73
2022-11-23T02:14:16.826Z,2.73
2022-11-23T02:14:25.000Z,2.71